ADDS METAR Data INFO
IDs: Format: Raw Decoded Include TAF

Data at: 0559 UTC 18 Jan 2018

KLAR 180553Z AUTO 19006KT 10SM CLR M08/M12 A3023 RMK AO2 SLP261 T10781117 10017 21089 56006